Weather observations for the past three days for
Comox, B. C.
Imperial (Metric)
Date Time (pdt) Wind (mph) Vis. (mi.) Weather Sky Cond. Temperature (ºF) Relative Humidity Wind Chill (°F) Heat Index (°F) Pressure Precipitation (in)
Air Dwpt 6 hour altimeter (in) sea level (mb) 1 hr 3 hr 6 hr
Max. Min.
06 10:00 NW 10 12.00 Overcast OVC021 55.4 46.4 72% 30.1 1019.3
06 09:00 N 10 12.00 Overcast OVC017 53.6 46.4 77% 30.09 1019.1
06 08:00 N 10 15.00 Overcast OVC016 55.4 50 82% 30.08 1018.6
06 07:00 N 7 15.00 Overcast OVC014 53.6 50 88% 30.06 1018.0
06 06:00 NW 6 15.00 Mostly Cloudy FEW020 FEW050 SCT180 BKN250 51.8 50 94% 30.04 1017.3
06 05:00 N 6 20.00 Partly Cloudy SCT250 51.8 50 94% 30.03 1017.0
06 04:00 NW 6 20.00 A Few Clouds FEW250 51.8 50 94% 30.02 1016.5
06 03:00 NW 5 20.00 Clear SKC 53.6 50 88% 30.01 1016.2
06 02:00 Calm 20.00 Clear SKC 53.6 50 88% 30 1015.8
06 01:00 W 2 20.00 Clear SKC 55.4 51.8 88% 29.99 1015.5
06 00:00 NW 2 20.00 Clear SKC 55.4 51.8 88% 29.96 1014.8
05 23:00 S 3 20.00 Clear SKC 57.2 51.8 82% 29.95 1014.2
05 22:00 S 3 20.00 Clear SKC 57.2 51.8 82% 29.94 1014.0
05 21:00 S 3 20.00 Clear SKC 59 51.8 77% 29.92 1013.4
05 20:00 SE 6 20.00 Clear SKC 60.8 51.8 72% 29.91 1013.0
05 19:00 S 7 20.00 Clear SKC 64.4 51.8 64% 29.9 1012.7
05 18:00 SE 9 20.00 Clear SKC 66.2 50 56% 29.91 1012.9
05 17:00 S 12 20.00 Clear SKC 66.2 51.8 60% 29.92 1013.2
05 15:00 SE 9 20.00 Clear SKC 68 53.6 60% 29.94 1014.0
05 14:00 S 10 20.00 Clear SKC 66.2 53.6 64% 29.96 1014.5
05 13:00 SE 13 20.00 Clear SKC 66.2 51.8 60% 29.96 1014.7
05 12:00 SE 12 G 18 20.00 Clear SKC 66.2 51.8 60% 29.96 1014.7
05 11:00 SE 9 20.00 Clear SKC 66.2 51.8 60% 29.96 1014.6
05 10:00 SE 9 20.00 Clear SKC 62.6 53.6 73% 29.96 1014.5
05 09:00 SE 8 20.00 Clear SKC 62.6 53.6 73% 29.95 1014.2
05 08:00 SE 9 20.00 Clear SKC 60.8 53.6 77% 29.93 1013.7
05 07:00 Calm 20.00 Clear SKC 57.2 51.8 82% 29.92 1013.1
05 06:00 Calm 20.00 Clear SKC 53.6 46.4 77% 29.9 1012.5
05 05:00 NE 2 20.00 Clear SKC 57.2 46.4 67% 29.88 1011.9
05 04:00 Calm 20.00 Clear SKC 55.4 48.2 77% 29.86 1011.3
05 03:00 W 2 20.00 Clear SKC 57.2 50 77% 29.85 1010.9
05 02:00 SW 2 20.00 Clear SKC 57.2 50 77% 29.84 1010.5
05 01:00 Calm 20.00 Clear SKC 59 50 72% 29.83 1010.2
05 00:00 NW 3 20.00 Clear SKC 60.8 51.8 72% 29.81 1009.4
04 23:00 NW 3 20.00 Clear SKC 62.6 48.2 60% 29.79 1008.8
04 22:00 Calm 20.00 Clear SKC 66.2 48.2 52% 29.78 1008.3
04 21:00 SW 2 20.00 A Few Clouds FEW250 69.8 42.8 38% 29.76 1007.8
04 20:00 NE 2 20.00 A Few Clouds FEW250 71.6 53.6 53% 29.75 1007.3
04 19:00 E 6 20.00 A Few Clouds FEW250 73.4 42.8 33% 29.75 1007.5
04 17:00 E 3 20.00 A Few Clouds FEW250 77 44.6 32% 78 29.78 1008.3
04 16:00 NE 5 20.00 A Few Clouds FEW250 75.2 48.2 39% 77 29.79 1008.7
04 15:00 NE 5 20.00 A Few Clouds FEW250 73.4 50 44% 29.8 1009.1
04 14:00 E 6 20.00 A Few Clouds FEW250 69.8 46.4 43% 29.82 1009.7
04 13:00 E 8 20.00 Partly Cloudy SCT250 71.6 50 47% 29.83 1010.0
04 12:00 N 8 20.00 Partly Cloudy SCT250 71.6 44.6 38% 29.84 1010.4
04 11:00 NW 8 20.00 Mostly Cloudy BKN250 71.6 42.8 36% 29.84 1010.5
04 10:00 N 8 20.00 Mostly Cloudy BKN250 68 44.6 43% 29.85 1010.8
04 09:00 N 5 20.00 A Few Clouds FEW250 66.2 44.6 46% 29.85 1010.8
04 08:00 NW 2 20.00 A Few Clouds FEW250 62.6 44.6 52% 29.85 1010.7
04 07:00 Calm 20.00 A Few Clouds FEW250 57.2 44.6 63% 29.84 1010.5
04 06:00 W 3 20.00 A Few Clouds FEW250 55.4 42.8 63% 29.84 1010.3
04 05:00 S 2 20.00 A Few Clouds FEW250 53.6 44.6 72% 29.83 1010.1
04 04:00 NW 2 20.00 A Few Clouds FEW250 57.2 42.8 59% 29.82 1009.8
04 03:00 NW 7 20.00 A Few Clouds FEW250 59 44.6 59% 29.82 1009.9
04 02:00 NW 6 20.00 A Few Clouds FEW250 60.8 44.6 55% 29.82 1009.9
04 01:00 NW 8 20.00 A Few Clouds FEW250 62.6 46.4 56% 29.82 1009.8
04 00:00 NW 7 20.00 A Few Clouds FEW250 64.4 46.4 52% 29.82 1009.9
03 23:00 NW 10 20.00 A Few Clouds FEW250 66.2 44.6 46% 29.82 1009.8
03 22:00 NW 2 20.00 A Few Clouds FEW250 66.2 44.6 46% 29.83 1010.1
03 21:00 NW 5 20.00 A Few Clouds FEW250 71.6 44.6 38% 29.82 1009.8
03 20:00 NW 6 20.00 A Few Clouds FEW250 78.8 37.4 23% 78 29.83 1010.0
03 19:00 NW 6 20.00 A Few Clouds FEW250 80.6 37.4 21% 79 29.84 1010.4
03 18:00 N 5 20.00 A Few Clouds FEW250 80.6 42.8 26% 79 29.85 1011.0
03 17:00 N 5 20.00 A Few Clouds FEW230 78.8 42.8 28% 78 29.87 1011.6
03 16:00 N 8 20.00 A Few Clouds FEW250 78.8 42.8 28% 78 29.9 1012.4
03 15:00 N 8 20.00 A Few Clouds FEW250 77 44.6 32% 78 29.92 1013.2
03 14:00 N 7 20.00 A Few Clouds FEW250 73.4 44.6 36% 29.94 1013.8
03 13:00 N 8 20.00 A Few Clouds FEW250 71.6 46.4 41% 29.96 1014.6
03 12:00 N 10 20.00 A Few Clouds FEW250 68 46.4 46% 29.97 1015.1
03 11:00 N 9 20.00 A Few Clouds FEW180 FEW250 64.4 46.4 52% 29.98 1015.3
Date Time (pdt) Wind (mph) Vis. (mi.) Weather Sky Cond. Air Dwpt Max. Min. Relative Humidity Wind Chill (°F) Heat Index (°F) altimeter (in) sea level (mb) 1 hr 3 hr 6 hr
6 hour
Temperature (ºF) Pressure Precipitation (in)